createdAt,value
2022-10-18T00:00:52.400Z,16.24
2022-10-18T00:03:20.144Z,16.23
2022-10-18T00:05:48.037Z,16.18
2022-10-18T00:08:15.798Z,16.17
2022-10-18T00:10:43.842Z,16.11
2022-10-18T00:13:13.099Z,16.12
2022-10-18T00:15:41.081Z,16.10
2022-10-18T00:18:08.767Z,16.10
2022-10-18T00:20:36.443Z,16.09
2022-10-18T00:23:04.211Z,16.07
2022-10-18T00:25:31.929Z,16.02
2022-10-18T00:27:59.637Z,16.01
2022-10-18T00:30:28.856Z,15.99
2022-10-18T00:32:56.586Z,15.98
2022-10-18T00:35:24.273Z,15.98
2022-10-18T00:37:52.031Z,15.99
2022-10-18T00:40:19.949Z,16.03
2022-10-18T00:42:47.764Z,16.06
2022-10-18T00:45:21.845Z,16.06
2022-10-18T00:47:54.620Z,16.08
2022-10-18T00:50:24.094Z,16.09
2022-10-18T00:52:55.163Z,16.08
2022-10-18T00:55:23.303Z,16.03
2022-10-18T00:57:51.386Z,16.03
2022-10-18T01:00:19.704Z,16.02
2022-10-18T01:02:48.628Z,16.02
2022-10-18T01:05:19.890Z,16.02
2022-10-18T01:08:06.966Z,16.06
2022-10-18T01:10:42.794Z,16.08
2022-10-18T01:13:29.211Z,16.07
2022-10-18T01:16:01.490Z,16.05
2022-10-18T01:18:36.455Z,16.05
2022-10-18T01:21:36.916Z,16.03
2022-10-18T01:24:41.608Z,16.01
2022-10-18T01:27:31.317Z,15.98
2022-10-18T01:30:44.767Z,15.96
2022-10-18T01:33:23.831Z,15.93
2022-10-18T01:35:56.290Z,15.96
2022-10-18T01:38:26.325Z,16.01
2022-10-18T01:40:55.306Z,16.03
2022-10-18T01:43:25.316Z,16.03
2022-10-18T01:45:55.853Z,16.06
2022-10-18T01:48:25.148Z,16.06
2022-10-18T01:50:53.967Z,16.08
2022-10-18T01:53:31.310Z,16.09
2022-10-18T01:56:19.402Z,16.09
2022-10-18T01:58:55.064Z,16.12
2022-10-18T02:01:34.683Z,16.13
2022-10-18T02:04:12.609Z,16.15
2022-10-18T02:06:46.298Z,16.15
2022-10-18T02:09:20.026Z,16.17
2022-10-18T02:11:51.050Z,16.16
2022-10-18T02:14:21.413Z,16.16
2022-10-18T02:16:52.192Z,16.17
2022-10-18T02:19:29.165Z,16.18
2022-10-18T02:21:59.546Z,16.15
2022-10-18T02:24:32.854Z,16.13
2022-10-18T02:27:00.652Z,16.12
2022-10-18T02:29:29.159Z,16.11
2022-10-18T02:32:04.873Z,16.08
2022-10-18T02:34:40.384Z,16.07
2022-10-18T02:37:09.981Z,16.05
2022-10-18T02:39:40.691Z,16.04
2022-10-18T02:42:12.086Z,16.02
2022-10-18T02:44:40.312Z,16.01
2022-10-18T02:47:10.736Z,16.00
2022-10-18T02:49:39.796Z,15.98
2022-10-18T02:52:07.569Z,15.98
2022-10-18T02:54:35.606Z,15.95
2022-10-18T02:57:03.358Z,15.92
2022-10-18T02:59:31.062Z,15.91
2022-10-18T03:01:58.790Z,15.92
2022-10-18T03:07:00.365Z,15.92
2022-10-18T03:09:28.325Z,15.91
2022-10-18T03:11:56.069Z,15.92
2022-10-18T03:14:23.817Z,15.92
2022-10-18T03:16:51.895Z,15.92
2022-10-18T03:19:19.633Z,15.93
2022-10-18T03:21:47.397Z,15.92
2022-10-18T03:24:16.467Z,15.90
2022-10-18T03:26:44.213Z,15.91
2022-10-18T03:29:12.218Z,15.91
2022-10-18T03:31:40.356Z,15.86
2022-10-18T03:34:08.148Z,15.80
2022-10-18T03:36:36.190Z,15.80
2022-10-18T03:39:04.050Z,15.78
2022-10-18T03:41:33.193Z,15.76
2022-10-18T03:44:00.920Z,15.79
2022-10-18T03:46:28.637Z,15.80
2022-10-18T03:48:56.416Z,15.79
2022-10-18T03:51:24.239Z,15.77
2022-10-18T03:53:52.011Z,15.75
2022-10-18T03:56:19.821Z,15.75
2022-10-18T03:58:48.895Z,15.75
2022-10-18T04:01:16.655Z,15.77
2022-10-18T04:03:44.407Z,15.77
2022-10-18T04:06:12.067Z,15.77
2022-10-18T04:08:40.018Z,15.78
2022-10-18T04:11:09.850Z,15.80
2022-10-18T04:13:37.899Z,15.79
2022-10-18T04:16:07.302Z,15.78
2022-10-18T04:18:35.080Z,15.77
2022-10-18T04:21:02.839Z,15.76
2022-10-18T04:23:31.833Z,15.77
2022-10-18T04:26:02.938Z,15.73
2022-10-18T04:28:30.845Z,15.74
2022-10-18T04:30:58.625Z,15.72
2022-10-18T04:33:28.038Z,15.69
2022-10-18T04:35:55.720Z,15.68
2022-10-18T04:38:23.420Z,15.66
2022-10-18T04:40:51.264Z,15.66
2022-10-18T04:43:19.052Z,15.67
2022-10-18T04:45:48.062Z,15.66
2022-10-18T04:48:15.859Z,15.64
2022-10-18T04:50:45.447Z,15.61
2022-10-18T04:53:13.136Z,15.64
2022-10-18T04:55:40.859Z,15.64
2022-10-18T04:58:08.658Z,15.63
2022-10-18T05:00:39.958Z,15.57
2022-10-18T05:03:08.001Z,15.53
2022-10-18T05:05:49.601Z,15.46
2022-10-18T05:08:19.372Z,15.48
2022-10-18T05:10:48.198Z,15.47
2022-10-18T05:13:15.984Z,15.45
2022-10-18T05:15:43.734Z,15.44
2022-10-18T05:18:11.465Z,15.44
2022-10-18T05:20:39.173Z,15.46
2022-10-18T05:23:06.868Z,15.46
2022-10-18T05:25:35.932Z,15.48
2022-10-18T05:28:10.712Z,15.48
2022-10-18T05:30:43.826Z,15.49
2022-10-18T05:33:11.613Z,15.48
2022-10-18T05:35:39.390Z,15.48
2022-10-18T05:38:07.702Z,15.46
2022-10-18T05:40:39.944Z,15.43
2022-10-18T05:43:07.695Z,15.45
2022-10-18T05:45:35.496Z,15.44
2022-10-18T05:48:03.219Z,15.43
2022-10-18T05:50:33.550Z,15.42
2022-10-18T05:53:12.161Z,15.43
2022-10-18T05:55:47.305Z,15.44
2022-10-18T05:58:15.020Z,15.43
2022-10-18T06:00:42.787Z,15.45
2022-10-18T06:03:10.508Z,15.47
2022-10-18T06:08:09.526Z,15.49
2022-10-18T06:10:40.105Z,15.52
2022-10-18T06:13:09.132Z,15.50
2022-10-18T06:15:36.886Z,15.49
2022-10-18T06:18:04.860Z,15.51
2022-10-18T06:20:32.528Z,15.53
2022-10-18T06:23:00.237Z,15.54
2022-10-18T06:25:27.973Z,15.55
2022-10-18T06:27:56.066Z,15.57
2022-10-18T06:30:25.451Z,15.63
2022-10-18T06:32:53.224Z,15.66
2022-10-18T06:35:20.962Z,15.68
2022-10-18T06:37:48.692Z,15.68
2022-10-18T06:40:16.431Z,15.69
2022-10-18T06:42:50.959Z,15.69
2022-10-18T06:45:29.521Z,15.71
2022-10-18T06:47:58.560Z,15.68
2022-10-18T06:50:26.310Z,15.66
2022-10-18T06:52:54.092Z,15.65
2022-10-18T06:55:21.835Z,15.63
2022-10-18T06:57:49.596Z,15.64
2022-10-18T07:00:17.342Z,15.62
2022-10-18T07:02:46.403Z,15.64
2022-10-18T07:05:14.331Z,15.65
2022-10-18T07:07:42.257Z,15.67
2022-10-18T07:10:13.032Z,15.70
2022-10-18T07:12:41.171Z,15.72
2022-10-18T07:15:09.723Z,15.75
2022-10-18T07:17:37.565Z,15.78
2022-10-18T07:20:07.468Z,15.80
2022-10-18T07:22:35.186Z,15.81
2022-10-18T07:25:02.966Z,15.87
2022-10-18T07:27:31.016Z,15.89
2022-10-18T07:29:59.484Z,15.94
2022-10-18T07:32:27.333Z,15.98
2022-10-18T07:34:55.291Z,16.06
2022-10-18T07:37:26.677Z,16.11
2022-10-18T07:39:57.311Z,16.19
2022-10-18T07:42:25.141Z,16.27
2022-10-18T07:44:53.099Z,16.32
2022-10-18T07:47:20.939Z,16.40
2022-10-18T07:49:48.727Z,16.49
2022-10-18T07:52:16.572Z,16.56
2022-10-18T07:54:45.866Z,16.59
2022-10-18T07:57:13.737Z,16.61
2022-10-18T07:59:41.445Z,16.69
2022-10-18T08:02:09.322Z,16.72
2022-10-18T08:04:37.165Z,16.75
2022-10-18T08:07:05.430Z,16.77
2022-10-18T08:09:33.372Z,16.80
2022-10-18T08:12:02.755Z,16.85
2022-10-18T08:14:30.696Z,16.90
2022-10-18T08:16:58.671Z,16.94
2022-10-18T08:19:26.424Z,17.01
2022-10-18T08:21:54.202Z,17.12
2022-10-18T08:24:22.064Z,17.22
2022-10-18T08:26:50.781Z,17.29
2022-10-18T08:29:25.864Z,17.35
2022-10-18T08:31:55.733Z,17.42
2022-10-18T08:34:23.733Z,17.48
2022-10-18T08:36:51.807Z,17.55
2022-10-18T08:39:19.524Z,17.62
2022-10-18T08:42:21.608Z,17.63
2022-10-18T08:44:52.695Z,17.74
2022-10-18T08:47:23.781Z,17.81
2022-10-18T08:49:55.245Z,17.88
2022-10-18T08:52:33.308Z,18.01
2022-10-18T08:55:04.542Z,18.09
2022-10-18T08:57:33.773Z,18.18
2022-10-18T09:00:16.053Z,18.32
2022-10-18T09:02:56.668Z,18.43
2022-10-18T09:05:32.648Z,18.55
2022-10-18T09:08:25.772Z,18.58
2022-10-18T09:11:04.061Z,18.63
2022-10-18T09:13:56.920Z,18.68
2022-10-18T09:16:31.848Z,18.73
2022-10-18T09:19:08.587Z,18.72
2022-10-18T09:21:45.390Z,18.78
2022-10-18T09:24:15.439Z,18.86
2022-10-18T09:26:46.644Z,18.94
2022-10-18T09:29:34.747Z,19.05
2022-10-18T09:32:15.320Z,19.39
2022-10-18T09:34:52.971Z,19.84
2022-10-18T09:37:22.660Z,20.26
2022-10-18T09:39:53.071Z,20.65
2022-10-18T09:42:26.912Z,20.84
2022-10-18T09:45:00.165Z,21.22
2022-10-18T09:47:36.993Z,21.63
2022-10-18T09:50:16.667Z,21.90
2022-10-18T09:52:50.155Z,21.99
2022-10-18T09:55:24.059Z,21.99
2022-10-18T09:57:55.671Z,21.92
2022-10-18T10:00:26.977Z,21.76
2022-10-18T10:02:56.250Z,21.77
2022-10-18T10:05:24.032Z,21.68
2022-10-18T10:08:02.299Z,21.47
2022-10-18T10:10:32.356Z,21.28
2022-10-18T10:13:06.859Z,21.20
2022-10-18T10:15:38.324Z,21.11
2022-10-18T10:18:23.779Z,21.11
2022-10-18T10:20:54.668Z,21.20
2022-10-18T10:23:26.120Z,21.21
2022-10-18T10:25:56.404Z,21.24
2022-10-18T10:28:27.113Z,21.23
2022-10-18T10:30:54.970Z,21.21
2022-10-18T10:33:36.893Z,21.16
2022-10-18T10:36:07.698Z,21.12
2022-10-18T10:38:35.569Z,21.01
2022-10-18T10:41:03.352Z,20.88
2022-10-18T10:43:38.305Z,20.78
2022-10-18T10:46:10.735Z,20.66
2022-10-18T10:48:50.264Z,20.53
2022-10-18T10:51:29.587Z,20.52
2022-10-18T10:54:03.153Z,20.44
2022-10-18T10:56:33.069Z,20.42
2022-10-18T10:59:09.370Z,20.40
2022-10-18T11:01:37.513Z,20.36
2022-10-18T11:04:26.349Z,20.26
2022-10-18T11:07:03.932Z,20.17
2022-10-18T11:09:40.196Z,20.08
2022-10-18T11:12:21.206Z,20.02
2022-10-18T11:14:57.046Z,19.96
2022-10-18T11:17:30.729Z,19.85
2022-10-18T11:20:14.631Z,19.74
2022-10-18T11:22:48.560Z,19.67
2022-10-18T11:25:17.964Z,19.63
2022-10-18T11:27:54.568Z,19.57
2022-10-18T11:30:47.500Z,19.52
2022-10-18T11:33:25.491Z,19.50
2022-10-18T11:36:08.354Z,19.45
2022-10-18T11:38:44.065Z,19.43
2022-10-18T11:41:27.241Z,19.40
2022-10-18T11:44:02.627Z,19.40
2022-10-18T11:46:46.966Z,19.47
2022-10-18T11:49:28.613Z,19.39
2022-10-18T11:52:09.484Z,19.39
2022-10-18T11:55:02.539Z,19.39
2022-10-18T11:57:51.950Z,19.43
2022-10-18T12:00:28.596Z,19.40
2022-10-18T12:03:09.817Z,19.40
2022-10-18T12:05:39.897Z,19.36
2022-10-18T12:08:13.713Z,19.34
2022-10-18T12:10:46.242Z,19.29
2022-10-18T12:13:37.820Z,19.24
2022-10-18T12:16:08.961Z,19.20
2022-10-18T12:18:43.705Z,19.19
2022-10-18T12:21:13.778Z,19.20
2022-10-18T12:23:50.558Z,19.20
2022-10-18T12:26:18.919Z,19.18
2022-10-18T12:28:57.750Z,19.21
2022-10-18T12:31:33.790Z,19.24
2022-10-18T12:34:05.871Z,19.25
2022-10-18T12:36:55.088Z,19.22
2022-10-18T12:39:38.940Z,19.18
2022-10-18T12:42:20.387Z,19.20
2022-10-18T12:44:48.876Z,19.23
2022-10-18T12:47:24.151Z,19.27
2022-10-18T12:50:00.293Z,19.29
2022-10-18T12:52:29.957Z,19.37
2022-10-18T12:55:31.327Z,19.83
2022-10-18T12:58:06.142Z,20.30
2022-10-18T13:00:54.137Z,20.72
2022-10-18T13:03:59.576Z,21.01
2022-10-18T13:07:05.746Z,21.21
2022-10-18T13:09:36.407Z,21.17
2022-10-18T13:12:37.097Z,21.14
2022-10-18T13:15:26.316Z,20.90
2022-10-18T13:18:00.626Z,20.76
2022-10-18T13:20:39.218Z,20.65
2022-10-18T13:23:26.240Z,20.68
2022-10-18T13:26:03.586Z,20.65
2022-10-18T13:28:40.705Z,20.66
2022-10-18T13:31:23.303Z,20.68
2022-10-18T13:33:51.289Z,20.75
2022-10-18T13:36:25.710Z,20.77
2022-10-18T13:39:03.167Z,20.75
2022-10-18T13:41:35.550Z,20.69
2022-10-18T13:44:25.109Z,20.68
2022-10-18T13:47:35.771Z,20.63
2022-10-18T13:53:25.413Z,20.52
2022-10-18T13:56:08.840Z,20.49
2022-10-18T13:59:05.699Z,20.43
2022-10-18T14:01:48.429Z,20.37
2022-10-18T14:05:11.181Z,20.27
2022-10-18T14:07:50.553Z,20.19
2022-10-18T14:10:44.181Z,20.15
2022-10-18T14:13:25.835Z,20.05
2022-10-18T14:16:05.054Z,19.96
2022-10-18T14:18:35.772Z,19.84
2022-10-18T14:21:13.751Z,19.79
2022-10-18T14:23:45.482Z,19.74
2022-10-18T14:26:17.883Z,19.70
2022-10-18T14:28:59.699Z,19.66
2022-10-18T14:31:29.651Z,19.62
2022-10-18T14:33:59.080Z,19.60
2022-10-18T14:36:30.749Z,19.54
2022-10-18T14:39:00.601Z,19.51
2022-10-18T14:41:29.819Z,19.49
2022-10-18T14:44:18.480Z,19.49
2022-10-18T14:46:50.136Z,19.47
2022-10-18T14:49:19.140Z,19.46
2022-10-18T14:51:51.028Z,19.44
2022-10-18T14:54:23.204Z,19.41
2022-10-18T14:56:52.908Z,19.36
2022-10-18T14:59:24.219Z,19.30
2022-10-18T15:01:56.255Z,19.27
2022-10-18T15:04:31.045Z,19.23
2022-10-18T15:07:00.160Z,19.22
2022-10-18T15:12:01.745Z,19.18
2022-10-18T15:14:30.763Z,19.18
2022-10-18T15:17:04.265Z,19.18
2022-10-18T15:19:35.197Z,19.18
2022-10-18T15:25:14.467Z,19.06
2022-10-18T15:27:45.168Z,18.97
2022-10-18T15:30:19.608Z,18.84
2022-10-18T15:32:57.368Z,18.70
2022-10-18T15:35:28.650Z,18.61
2022-10-18T15:37:58.605Z,18.54
2022-10-18T15:40:38.448Z,18.44
2022-10-18T15:43:27.893Z,18.42
2022-10-18T15:46:00.177Z,18.34
2022-10-18T15:48:35.105Z,18.28
2022-10-18T15:51:05.391Z,18.24
2022-10-18T15:53:43.557Z,18.18
2022-10-18T15:56:26.944Z,18.11
2022-10-18T15:58:56.877Z,18.00
2022-10-18T16:01:33.427Z,17.90
2022-10-18T16:04:05.856Z,17.88
2022-10-18T16:06:35.578Z,17.79
2022-10-18T16:09:03.360Z,17.73
2022-10-18T16:11:31.155Z,17.66
2022-10-18T16:14:00.492Z,17.64
2022-10-18T16:16:30.208Z,17.62
2022-10-18T16:18:58.203Z,17.61
2022-10-18T16:21:29.050Z,17.54
2022-10-18T16:23:56.785Z,17.50
2022-10-18T16:26:25.042Z,17.43
2022-10-18T16:28:54.435Z,17.42
2022-10-18T16:31:24.737Z,17.44
2022-10-18T16:33:53.564Z,17.43
2022-10-18T16:36:23.170Z,17.42
2022-10-18T16:38:52.572Z,17.39
2022-10-18T16:41:20.278Z,17.36
2022-10-18T16:43:49.740Z,17.35
2022-10-18T16:46:19.759Z,17.34
2022-10-18T16:48:49.082Z,17.32
2022-10-18T16:51:17.164Z,17.29
2022-10-18T16:53:45.211Z,17.29
2022-10-18T16:56:16.866Z,17.29
2022-10-18T16:58:45.757Z,17.26
2022-10-18T17:01:14.850Z,17.24
2022-10-18T17:03:42.763Z,17.21
2022-10-18T17:06:16.169Z,17.17
2022-10-18T17:08:44.429Z,17.11
2022-10-18T17:11:15.339Z,17.04
2022-10-18T17:13:43.559Z,17.02
2022-10-18T17:16:23.892Z,17.04
2022-10-18T17:18:52.230Z,16.99
2022-10-18T17:21:19.959Z,16.92
2022-10-18T17:23:47.652Z,16.87
2022-10-18T17:26:32.082Z,16.84
2022-10-18T17:29:01.576Z,16.80
2022-10-18T17:31:29.930Z,16.79
2022-10-18T17:33:58.735Z,16.79
2022-10-18T17:36:27.192Z,16.80
2022-10-18T17:38:55.881Z,16.78
2022-10-18T17:41:25.205Z,16.78
2022-10-18T17:43:52.959Z,16.77
2022-10-18T17:46:20.849Z,16.71
2022-10-18T17:48:48.739Z,16.68
2022-10-18T17:51:18.098Z,16.63
2022-10-18T17:53:46.369Z,16.59
2022-10-18T17:56:14.794Z,16.58
2022-10-18T17:58:44.359Z,16.56
2022-10-18T18:01:13.996Z,16.51
2022-10-18T18:03:42.251Z,16.46
2022-10-18T18:06:15.203Z,16.43
2022-10-18T18:08:43.021Z,16.45
2022-10-18T18:11:10.745Z,16.43
2022-10-18T18:13:38.441Z,16.36
2022-10-18T18:16:17.966Z,16.31
2022-10-18T18:18:46.393Z,16.32
2022-10-18T18:21:14.739Z,16.28
2022-10-18T18:23:42.820Z,16.25
2022-10-18T18:26:10.735Z,16.22
2022-10-18T18:28:38.726Z,16.15
2022-10-18T18:31:07.885Z,16.16
2022-10-18T18:33:37.537Z,16.12
2022-10-18T18:36:06.691Z,16.05
2022-10-18T18:38:36.415Z,15.95
2022-10-18T18:41:08.826Z,15.90
2022-10-18T18:43:37.044Z,15.86
2022-10-18T18:46:05.064Z,15.88
2022-10-18T18:48:35.377Z,15.86
2022-10-18T18:51:06.471Z,15.89
2022-10-18T18:53:34.332Z,15.90
2022-10-18T18:56:03.381Z,15.90
2022-10-18T18:58:31.165Z,15.87
2022-10-18T19:00:58.967Z,15.89
2022-10-18T19:03:26.917Z,15.84
2022-10-18T19:06:05.360Z,15.81
2022-10-18T19:08:33.187Z,15.76
2022-10-18T19:11:01.003Z,15.70
2022-10-18T19:13:28.736Z,15.66
2022-10-18T19:16:11.930Z,15.63
2022-10-18T19:18:39.748Z,15.57
2022-10-18T19:21:08.826Z,15.57
2022-10-18T19:23:36.609Z,15.56
2022-10-18T19:26:11.294Z,15.56
2022-10-18T19:28:39.526Z,15.57
2022-10-18T19:31:07.654Z,15.53
2022-10-18T19:33:48.033Z,15.50
2022-10-18T19:36:17.800Z,15.49
2022-10-18T19:38:45.681Z,15.50
2022-10-18T19:41:13.611Z,15.48
2022-10-18T19:43:41.333Z,15.46
2022-10-18T19:46:09.073Z,15.43
2022-10-18T19:48:36.812Z,15.39
2022-10-18T19:51:07.112Z,15.39
2022-10-18T19:53:38.379Z,15.40
2022-10-18T19:56:07.812Z,15.40
2022-10-18T19:58:35.783Z,15.39
2022-10-18T20:01:03.511Z,15.39
2022-10-18T20:03:31.346Z,15.42
2022-10-18T20:06:00.869Z,15.43
2022-10-18T20:08:30.274Z,15.43
2022-10-18T20:11:02.076Z,15.45
2022-10-18T20:13:29.985Z,15.48
2022-10-18T20:15:58.205Z,15.52
2022-10-18T20:18:25.993Z,15.55
2022-10-18T20:20:53.711Z,15.57
2022-10-18T20:23:21.783Z,15.59
2022-10-18T20:26:02.264Z,15.60
2022-10-18T20:28:30.515Z,15.61
2022-10-18T20:31:05.913Z,15.65
2022-10-18T20:33:34.876Z,15.66
2022-10-18T20:36:03.790Z,15.69
2022-10-18T20:38:32.942Z,15.71
2022-10-18T20:41:07.919Z,15.73
2022-10-18T20:43:36.675Z,15.78
2022-10-18T20:46:05.694Z,15.78
2022-10-18T20:48:34.450Z,15.78
2022-10-18T20:51:05.070Z,15.79
2022-10-18T20:53:32.894Z,15.80
2022-10-18T20:56:06.015Z,15.80
2022-10-18T20:58:33.886Z,15.81
2022-10-18T21:01:09.195Z,15.79
2022-10-18T21:03:41.723Z,15.80
2022-10-18T21:06:10.873Z,15.80
2022-10-18T21:08:39.122Z,15.79
2022-10-18T21:11:08.987Z,15.81
2022-10-18T21:13:36.828Z,15.80
2022-10-18T21:16:06.224Z,15.81
2022-10-18T21:18:35.622Z,15.82
2022-10-18T21:23:39.353Z,15.77
2022-10-18T21:26:09.131Z,15.76
2022-10-18T21:28:36.841Z,15.71
2022-10-18T21:31:15.817Z,15.69
2022-10-18T21:33:44.989Z,15.61
2022-10-18T21:36:13.764Z,15.56
2022-10-18T21:38:44.904Z,15.55
2022-10-18T21:41:15.233Z,15.48
2022-10-18T21:43:45.104Z,15.48
2022-10-18T21:46:14.643Z,15.49
2022-10-18T21:48:45.468Z,15.48
2022-10-18T21:51:15.100Z,15.48
2022-10-18T21:53:44.227Z,15.47
2022-10-18T21:56:15.402Z,15.45
2022-10-18T21:58:43.301Z,15.37
2022-10-18T22:01:12.712Z,15.32
2022-10-18T22:03:41.043Z,15.27
2022-10-18T22:06:13.891Z,15.25
2022-10-18T22:08:42.019Z,15.23
2022-10-18T22:11:10.705Z,15.22
2022-10-18T22:13:40.170Z,15.23
2022-10-18T22:16:09.375Z,15.23
2022-10-18T22:18:37.175Z,15.21
2022-10-18T22:21:07.317Z,15.18
2022-10-18T22:23:36.971Z,15.16
2022-10-18T22:26:07.490Z,15.12
2022-10-18T22:28:35.757Z,15.10
2022-10-18T22:31:05.310Z,15.05
2022-10-18T22:33:33.120Z,15.07
2022-10-18T22:36:00.879Z,15.06
2022-10-18T22:38:28.551Z,15.04
2022-10-18T22:40:56.240Z,15.03
2022-10-18T22:43:24.018Z,15.02
2022-10-18T22:45:51.635Z,15.01
2022-10-18T22:48:20.680Z,14.98
2022-10-18T22:50:48.370Z,14.97
2022-10-18T22:53:16.028Z,14.91
2022-10-18T22:55:43.675Z,14.88
2022-10-18T22:58:11.445Z,14.83
2022-10-18T23:00:39.319Z,14.76
2022-10-18T23:03:07.142Z,14.73
2022-10-18T23:05:39.695Z,14.70
2022-10-18T23:08:07.653Z,14.68
2022-10-18T23:10:37.064Z,14.64
2022-10-18T23:13:04.825Z,14.61
2022-10-18T23:15:33.649Z,14.55
2022-10-18T23:18:01.504Z,14.53
2022-10-18T23:20:29.211Z,14.50
2022-10-18T23:22:58.396Z,14.41
2022-10-18T23:25:27.067Z,14.40
2022-10-18T23:27:54.917Z,14.41
2022-10-18T23:30:22.652Z,14.39
2022-10-18T23:32:50.291Z,14.35
2022-10-18T23:35:18.046Z,14.33
2022-10-18T23:37:45.845Z,14.31
2022-10-18T23:40:15.050Z,14.30
2022-10-18T23:42:42.742Z,14.31
2022-10-18T23:45:11.149Z,14.30
2022-10-18T23:47:38.874Z,14.30
2022-10-18T23:50:07.525Z,14.31
2022-10-18T23:52:35.187Z,14.32
2022-10-18T23:55:02.880Z,14.30
2022-10-18T23:57:32.225Z,14.30
